sensor_id;sensor_type;location;lat;lon;timestamp;temperature;humidity
10868;DHT22;62667;48.698;8.762;2023-02-12T00:01:24;4.80;62.40
10868;DHT22;62667;48.698;8.762;2023-02-12T00:03:54;4.90;62.50
10868;DHT22;62667;48.698;8.762;2023-02-12T00:06:22;4.90;62.10
10868;DHT22;62667;48.698;8.762;2023-02-12T00:08:50;4.90;62.40
10868;DHT22;62667;48.698;8.762;2023-02-12T00:11:19;4.90;61.60
10868;DHT22;62667;48.698;8.762;2023-02-12T00:13:49;4.80;61.50
10868;DHT22;62667;48.698;8.762;2023-02-12T00:16:18;4.80;62.00
10868;DHT22;62667;48.698;8.762;2023-02-12T00:18:47;4.70;62.20
10868;DHT22;62667;48.698;8.762;2023-02-12T00:21:18;4.70;62.00
10868;DHT22;62667;48.698;8.762;2023-02-12T00:23:46;4.70;62.10
10868;DHT22;62667;48.698;8.762;2023-02-12T00:26:15;4.70;63.00
10868;DHT22;62667;48.698;8.762;2023-02-12T00:33:41;4.50;61.80
10868;DHT22;62667;48.698;8.762;2023-02-12T00:36:13;4.50;62.80
10868;DHT22;62667;48.698;8.762;2023-02-12T00:38:43;4.60;62.40
10868;DHT22;62667;48.698;8.762;2023-02-12T00:41:11;4.50;62.60
10868;DHT22;62667;48.698;8.762;2023-02-12T00:43:38;4.60;63.40
10868;DHT22;62667;48.698;8.762;2023-02-12T00:46:06;4.70;62.70
10868;DHT22;62667;48.698;8.762;2023-02-12T00:48:34;4.70;62.50
10868;DHT22;62667;48.698;8.762;2023-02-12T00:51:03;4.70;62.40
10868;DHT22;62667;48.698;8.762;2023-02-12T00:53:31;4.70;62.40
10868;DHT22;62667;48.698;8.762;2023-02-12T00:56:00;4.60;62.50
10868;DHT22;62667;48.698;8.762;2023-02-12T00:58:27;4.60;62.20
10868;DHT22;62667;48.698;8.762;2023-02-12T01:00:55;4.50;62.40
10868;DHT22;62667;48.698;8.762;2023-02-12T01:03:22;4.50;63.20
10868;DHT22;62667;48.698;8.762;2023-02-12T01:05:50;4.50;63.30
10868;DHT22;62667;48.698;8.762;2023-02-12T01:08:17;4.50;63.50
10868;DHT22;62667;48.698;8.762;2023-02-12T01:10:44;4.50;63.40
10868;DHT22;62667;48.698;8.762;2023-02-12T01:13:22;4.60;63.10
10868;DHT22;62667;48.698;8.762;2023-02-12T01:16:00;4.60;63.40
10868;DHT22;62667;48.698;8.762;2023-02-12T01:18:29;4.70;63.40
10868;DHT22;62667;48.698;8.762;2023-02-12T01:20:56;4.70;62.90
10868;DHT22;62667;48.698;8.762;2023-02-12T01:23:24;4.60;62.40
10868;DHT22;62667;48.698;8.762;2023-02-12T01:25:51;4.50;63.00
10868;DHT22;62667;48.698;8.762;2023-02-12T01:28:18;4.50;63.20
10868;DHT22;62667;48.698;8.762;2023-02-12T01:30:46;4.20;88.60
10868;DHT22;62667;48.698;8.762;2023-02-12T01:33:13;4.20;63.50
10868;DHT22;62667;48.698;8.762;2023-02-12T01:35:40;4.20;64.10
10868;DHT22;62667;48.698;8.762;2023-02-12T01:38:08;4.20;64.40
10868;DHT22;62667;48.698;8.762;2023-02-12T01:40:35;4.30;64.60
10868;DHT22;62667;48.698;8.762;2023-02-12T01:43:05;4.40;64.50
10868;DHT22;62667;48.698;8.762;2023-02-12T01:45:52;4.40;64.40
10868;DHT22;62667;48.698;8.762;2023-02-12T01:48:21;4.50;64.30
10868;DHT22;62667;48.698;8.762;2023-02-12T01:50:52;4.50;64.00
10868;DHT22;62667;48.698;8.762;2023-02-12T01:53:23;4.50;62.70
10868;DHT22;62667;48.698;8.762;2023-02-12T01:55:57;4.50;63.00
10868;DHT22;62667;48.698;8.762;2023-02-12T01:58:30;4.40;63.20
10868;DHT22;62667;48.698;8.762;2023-02-12T02:01:05;4.40;63.50
10868;DHT22;62667;48.698;8.762;2023-02-12T02:03:37;4.40;63.80
10868;DHT22;62667;48.698;8.762;2023-02-12T02:06:08;4.40;63.70
10868;DHT22;62667;48.698;8.762;2023-02-12T02:08:38;4.50;63.80
10868;DHT22;62667;48.698;8.762;2023-02-12T02:11:06;4.50;63.40
10868;DHT22;62667;48.698;8.762;2023-02-12T02:13:47;4.40;63.20
10868;DHT22;62667;48.698;8.762;2023-02-12T02:16:34;4.40;63.10
10868;DHT22;62667;48.698;8.762;2023-02-12T02:19:08;4.30;63.40
10868;DHT22;62667;48.698;8.762;2023-02-12T02:22:23;4.30;63.60
10868;DHT22;62667;48.698;8.762;2023-02-12T02:25:29;4.20;64.30
10868;DHT22;62667;48.698;8.762;2023-02-12T02:28:19;4.30;64.50
10868;DHT22;62667;48.698;8.762;2023-02-12T02:31:04;4.30;64.30
10868;DHT22;62667;48.698;8.762;2023-02-12T02:33:41;4.40;64.20
10868;DHT22;62667;48.698;8.762;2023-02-12T02:36:24;4.50;63.90
10868;DHT22;62667;48.698;8.762;2023-02-12T02:39:03;4.30;63.80
10868;DHT22;62667;48.698;8.762;2023-02-12T02:41:40;4.30;64.40
10868;DHT22;62667;48.698;8.762;2023-02-12T02:44:14;4.20;64.40
10868;DHT22;62667;48.698;8.762;2023-02-12T02:46:46;4.20;64.40
10868;DHT22;62667;48.698;8.762;2023-02-12T02:49:18;4.30;64.70
10868;DHT22;62667;48.698;8.762;2023-02-12T02:51:52;4.30;64.50
10868;DHT22;62667;48.698;8.762;2023-02-12T02:54:26;4.30;64.40
10868;DHT22;62667;48.698;8.762;2023-02-12T02:57:02;4.30;64.50
10868;DHT22;62667;48.698;8.762;2023-02-12T02:59:36;4.40;64.30
10868;DHT22;62667;48.698;8.762;2023-02-12T03:02:13;4.40;63.90
10868;DHT22;62667;48.698;8.762;2023-02-12T03:04:49;4.20;64.80
10868;DHT22;62667;48.698;8.762;2023-02-12T03:07:21;4.20;65.40
10868;DHT22;62667;48.698;8.762;2023-02-12T03:09:56;4.30;65.60
10868;DHT22;62667;48.698;8.762;2023-02-12T03:12:30;4.30;65.70
10868;DHT22;62667;48.698;8.762;2023-02-12T03:15:07;4.30;65.40
10868;DHT22;62667;48.698;8.762;2023-02-12T03:17:40;4.30;65.00
10868;DHT22;62667;48.698;8.762;2023-02-12T03:20:14;4.30;65.10
10868;DHT22;62667;48.698;8.762;2023-02-12T03:22:48;4.20;65.10
10868;DHT22;62667;48.698;8.762;2023-02-12T03:25:22;4.20;65.50
10868;DHT22;62667;48.698;8.762;2023-02-12T03:27:58;4.20;66.30
10868;DHT22;62667;48.698;8.762;2023-02-12T03:30:38;4.30;65.40
10868;DHT22;62667;48.698;8.762;2023-02-12T03:33:18;4.30;65.40
10868;DHT22;62667;48.698;8.762;2023-02-12T03:35:57;4.30;65.40
10868;DHT22;62667;48.698;8.762;2023-02-12T03:38:34;4.40;65.30
10868;DHT22;62667;48.698;8.762;2023-02-12T03:41:08;4.40;65.00
10868;DHT22;62667;48.698;8.762;2023-02-12T03:43:47;4.40;64.90
10868;DHT22;62667;48.698;8.762;2023-02-12T03:46:20;4.40;65.10
10868;DHT22;62667;48.698;8.762;2023-02-12T03:48:58;4.30;65.50
10868;DHT22;62667;48.698;8.762;2023-02-12T03:51:31;4.30;65.70
10868;DHT22;62667;48.698;8.762;2023-02-12T03:54:02;4.30;65.70
10868;DHT22;62667;48.698;8.762;2023-02-12T03:56:36;4.30;65.90
10868;DHT22;62667;48.698;8.762;2023-02-12T03:59:06;4.30;66.00
10868;DHT22;62667;48.698;8.762;2023-02-12T04:01:34;4.30;66.00
10868;DHT22;62667;48.698;8.762;2023-02-12T04:04:05;4.30;66.10
10868;DHT22;62667;48.698;8.762;2023-02-12T04:06:33;4.30;66.20
10868;DHT22;62667;48.698;8.762;2023-02-12T04:09:03;4.30;65.70
10868;DHT22;62667;48.698;8.762;2023-02-12T04:11:38;4.30;65.70
10868;DHT22;62667;48.698;8.762;2023-02-12T04:14:21;4.30;65.90
10868;DHT22;62667;48.698;8.762;2023-02-12T04:16:59;4.30;65.60
10868;DHT22;62667;48.698;8.762;2023-02-12T04:19:39;4.30;65.60
10868;DHT22;62667;48.698;8.762;2023-02-12T04:22:22;4.20;65.90
10868;DHT22;62667;48.698;8.762;2023-02-12T04:25:04;4.20;66.20
10868;DHT22;62667;48.698;8.762;2023-02-12T04:27:43;4.20;66.50
10868;DHT22;62667;48.698;8.762;2023-02-12T04:30:20;4.20;66.80
10868;DHT22;62667;48.698;8.762;2023-02-12T04:32:54;4.20;67.20
10868;DHT22;62667;48.698;8.762;2023-02-12T04:35:31;4.30;67.30
10868;DHT22;62667;48.698;8.762;2023-02-12T04:38:06;4.40;66.90
10868;DHT22;62667;48.698;8.762;2023-02-12T04:40:38;4.30;66.70
10868;DHT22;62667;48.698;8.762;2023-02-12T04:43:07;4.40;66.30
10868;DHT22;62667;48.698;8.762;2023-02-12T04:45:35;4.40;66.90
10868;DHT22;62667;48.698;8.762;2023-02-12T04:48:04;4.40;66.80
10868;DHT22;62667;48.698;8.762;2023-02-12T04:50:38;4.40;66.40
10868;DHT22;62667;48.698;8.762;2023-02-12T04:53:06;4.40;66.70
10868;DHT22;62667;48.698;8.762;2023-02-12T04:55:33;4.50;66.80
10868;DHT22;62667;48.698;8.762;2023-02-12T04:58:00;4.30;66.60
10868;DHT22;62667;48.698;8.762;2023-02-12T05:00:27;4.30;66.90
10868;DHT22;62667;48.698;8.762;2023-02-12T05:02:54;4.20;66.90
10868;DHT22;62667;48.698;8.762;2023-02-12T05:05:22;4.20;67.50
10868;DHT22;62667;48.698;8.762;2023-02-12T05:07:50;4.20;67.80
10868;DHT22;62667;48.698;8.762;2023-02-12T05:10:18;4.20;67.90
10868;DHT22;62667;48.698;8.762;2023-02-12T05:12:45;4.30;68.10
10868;DHT22;62667;48.698;8.762;2023-02-12T05:15:12;4.20;67.90
10868;DHT22;62667;48.698;8.762;2023-02-12T05:17:39;4.20;68.50
10868;DHT22;62667;48.698;8.762;2023-02-12T05:20:07;4.10;69.10
10868;DHT22;62667;48.698;8.762;2023-02-12T05:22:36;4.10;69.70
10868;DHT22;62667;48.698;8.762;2023-02-12T05:25:05;4.00;70.20
10868;DHT22;62667;48.698;8.762;2023-02-12T05:27:32;4.00;71.00
10868;DHT22;62667;48.698;8.762;2023-02-12T05:29:59;4.00;71.70
10868;DHT22;62667;48.698;8.762;2023-02-12T05:32:27;4.00;72.70
10868;DHT22;62667;48.698;8.762;2023-02-12T05:34:54;4.00;73.50
10868;DHT22;62667;48.698;8.762;2023-02-12T05:37:21;4.00;74.00
10868;DHT22;62667;48.698;8.762;2023-02-12T05:39:48;4.00;75.00
10868;DHT22;62667;48.698;8.762;2023-02-12T05:42:17;4.00;75.40
10868;DHT22;62667;48.698;8.762;2023-02-12T05:44:44;4.00;75.80
10868;DHT22;62667;48.698;8.762;2023-02-12T05:47:11;4.00;76.70
10868;DHT22;62667;48.698;8.762;2023-02-12T05:49:38;4.00;76.60
10868;DHT22;62667;48.698;8.762;2023-02-12T05:52:05;3.90;77.10
10868;DHT22;62667;48.698;8.762;2023-02-12T05:54:32;3.90;77.80
10868;DHT22;62667;48.698;8.762;2023-02-12T05:59:29;3.90;78.70
10868;DHT22;62667;48.698;8.762;2023-02-12T06:01:56;3.90;79.30
10868;DHT22;62667;48.698;8.762;2023-02-12T06:04:25;3.80;79.60
10868;DHT22;62667;48.698;8.762;2023-02-12T06:06:55;3.80;80.20
10868;DHT22;62667;48.698;8.762;2023-02-12T06:09:23;3.90;80.80
10868;DHT22;62667;48.698;8.762;2023-02-12T06:11:50;3.90;81.20
10868;DHT22;62667;48.698;8.762;2023-02-12T06:14:19;3.90;81.60
10868;DHT22;62667;48.698;8.762;2023-02-12T06:16:49;3.90;81.60
10868;DHT22;62667;48.698;8.762;2023-02-12T06:19:18;3.80;82.00
10868;DHT22;62667;48.698;8.762;2023-02-12T06:21:46;3.90;83.10
10868;DHT22;62667;48.698;8.762;2023-02-12T06:24:14;3.80;83.40
10868;DHT22;62667;48.698;8.762;2023-02-12T06:26:42;3.80;83.50
10868;DHT22;62667;48.698;8.762;2023-02-12T06:29:10;3.90;83.70
10868;DHT22;62667;48.698;8.762;2023-02-12T06:31:38;3.80;83.50
10868;DHT22;62667;48.698;8.762;2023-02-12T06:34:08;3.70;83.60
10868;DHT22;62667;48.698;8.762;2023-02-12T06:51:28;3.70;85.40
10868;DHT22;62667;48.698;8.762;2023-02-12T06:53:57;3.80;86.80
10868;DHT22;62667;48.698;8.762;2023-02-12T06:56:25;3.80;87.10
10868;DHT22;62667;48.698;8.762;2023-02-12T06:58:55;3.90;86.50
10868;DHT22;62667;48.698;8.762;2023-02-12T07:01:25;3.90;86.00
10868;DHT22;62667;48.698;8.762;2023-02-12T07:03:57;3.90;85.80
10868;DHT22;62667;48.698;8.762;2023-02-12T07:06:27;3.90;85.50
10868;DHT22;62667;48.698;8.762;2023-02-12T07:08:55;3.80;85.00
10868;DHT22;62667;48.698;8.762;2023-02-12T07:11:24;3.80;85.30
10868;DHT22;62667;48.698;8.762;2023-02-12T07:13:51;3.80;86.00
10868;DHT22;62667;48.698;8.762;2023-02-12T07:16:19;3.80;86.50
10868;DHT22;62667;48.698;8.762;2023-02-12T07:18:46;3.90;86.40
10868;DHT22;62667;48.698;8.762;2023-02-12T07:21:15;3.90;86.00
10868;DHT22;62667;48.698;8.762;2023-02-12T07:23:46;3.90;85.50
10868;DHT22;62667;48.698;8.762;2023-02-12T07:26:15;3.90;85.20
10868;DHT22;62667;48.698;8.762;2023-02-12T07:28:42;3.90;84.90
10868;DHT22;62667;48.698;8.762;2023-02-12T07:31:11;3.90;84.40
10868;DHT22;62667;48.698;8.762;2023-02-12T07:33:40;4.00;84.40
10868;DHT22;62667;48.698;8.762;2023-02-12T07:36:09;4.10;84.20
10868;DHT22;62667;48.698;8.762;2023-02-12T07:38:38;4.10;84.30
10868;DHT22;62667;48.698;8.762;2023-02-12T07:41:09;4.20;85.00
10868;DHT22;62667;48.698;8.762;2023-02-12T07:43:38;4.30;84.30
10868;DHT22;62667;48.698;8.762;2023-02-12T07:46:07;4.40;84.20
10868;DHT22;62667;48.698;8.762;2023-02-12T07:48:36;4.50;83.50
10868;DHT22;62667;48.698;8.762;2023-02-12T07:51:08;4.60;83.90
10868;DHT22;62667;48.698;8.762;2023-02-12T07:53:37;4.60;81.90
10868;DHT22;62667;48.698;8.762;2023-02-12T07:56:10;4.60;81.90
10868;DHT22;62667;48.698;8.762;2023-02-12T07:58:40;4.60;81.10
10868;DHT22;62667;48.698;8.762;2023-02-12T08:01:15;4.70;80.80
10868;DHT22;62667;48.698;8.762;2023-02-12T08:03:44;4.60;80.20
10868;DHT22;62667;48.698;8.762;2023-02-12T08:06:14;4.70;82.70
10868;DHT22;62667;48.698;8.762;2023-02-12T08:08:42;4.70;81.80
10868;DHT22;62667;48.698;8.762;2023-02-12T08:11:12;4.80;81.70
10868;DHT22;62667;48.698;8.762;2023-02-12T08:13:40;4.90;81.00
10868;DHT22;62667;48.698;8.762;2023-02-12T08:16:10;5.00;81.00
10868;DHT22;62667;48.698;8.762;2023-02-12T08:18:38;5.20;80.90
10868;DHT22;62667;48.698;8.762;2023-02-12T08:21:07;5.30;80.20
10868;DHT22;62667;48.698;8.762;2023-02-12T08:23:35;5.30;78.90
10868;DHT22;62667;48.698;8.762;2023-02-12T08:26:08;5.40;79.40
10868;DHT22;62667;48.698;8.762;2023-02-12T08:28:40;5.40;78.90
10868;DHT22;62667;48.698;8.762;2023-02-12T08:31:11;5.60;79.80
10868;DHT22;62667;48.698;8.762;2023-02-12T08:33:39;5.70;79.40
10868;DHT22;62667;48.698;8.762;2023-02-12T08:36:08;5.80;78.60
10868;DHT22;62667;48.698;8.762;2023-02-12T08:38:37;5.80;88.10
10868;DHT22;62667;48.698;8.762;2023-02-12T08:43:39;6.00;77.50
10868;DHT22;62667;48.698;8.762;2023-02-12T08:46:08;6.00;76.10
10868;DHT22;62667;48.698;8.762;2023-02-12T08:48:38;6.10;76.50
10868;DHT22;62667;48.698;8.762;2023-02-12T08:51:07;6.00;75.50
10868;DHT22;62667;48.698;8.762;2023-02-12T08:53:36;6.00;76.20
10868;DHT22;62667;48.698;8.762;2023-02-12T08:56:04;6.00;76.00
10868;DHT22;62667;48.698;8.762;2023-02-12T08:58:35;6.00;76.20
10868;DHT22;62667;48.698;8.762;2023-02-12T09:01:07;6.10;77.50
10868;DHT22;62667;48.698;8.762;2023-02-12T09:03:36;6.10;76.90
10868;DHT22;62667;48.698;8.762;2023-02-12T09:06:03;6.10;77.20
10868;DHT22;62667;48.698;8.762;2023-02-12T09:08:32;6.10;78.40
10868;DHT22;62667;48.698;8.762;2023-02-12T09:11:03;6.20;79.40
10868;DHT22;62667;48.698;8.762;2023-02-12T09:13:31;6.20;80.30
10868;DHT22;62667;48.698;8.762;2023-02-12T09:16:04;6.20;79.70
10868;DHT22;62667;48.698;8.762;2023-02-12T09:18:33;6.30;81.70
10868;DHT22;62667;48.698;8.762;2023-02-12T09:21:03;6.50;81.00
10868;DHT22;62667;48.698;8.762;2023-02-12T09:23:32;6.50;79.40
10868;DHT22;62667;48.698;8.762;2023-02-12T09:26:03;6.50;78.20
10868;DHT22;62667;48.698;8.762;2023-02-12T09:28:30;6.50;77.20
10868;DHT22;62667;48.698;8.762;2023-02-12T09:30:58;6.50;77.10
10868;DHT22;62667;48.698;8.762;2023-02-12T09:33:26;6.40;77.10
10868;DHT22;62667;48.698;8.762;2023-02-12T09:35:53;6.30;78.30
10868;DHT22;62667;48.698;8.762;2023-02-12T09:38:20;6.30;78.70
10868;DHT22;62667;48.698;8.762;2023-02-12T09:40:56;6.50;78.30
10868;DHT22;62667;48.698;8.762;2023-02-12T09:43:43;6.40;76.90
10868;DHT22;62667;48.698;8.762;2023-02-12T09:48:59;6.50;76.30
10868;DHT22;62667;48.698;8.762;2023-02-12T09:51:35;6.40;77.30
10868;DHT22;62667;48.698;8.762;2023-02-12T09:54:08;6.50;75.80
10868;DHT22;62667;48.698;8.762;2023-02-12T09:56:40;6.60;75.50
10868;DHT22;62667;48.698;8.762;2023-02-12T09:59:17;6.60;75.10
10868;DHT22;62667;48.698;8.762;2023-02-12T10:01:54;6.70;73.70
10868;DHT22;62667;48.698;8.762;2023-02-12T10:04:24;6.60;72.60
10868;DHT22;62667;48.698;8.762;2023-02-12T10:07:00;6.60;73.20
10868;DHT22;62667;48.698;8.762;2023-02-12T10:10:00;6.70;73.30
10868;DHT22;62667;48.698;8.762;2023-02-12T10:12:37;6.70;72.80
10868;DHT22;62667;48.698;8.762;2023-02-12T10:15:16;6.90;71.60
10868;DHT22;62667;48.698;8.762;2023-02-12T10:17:58;6.90;71.80
10868;DHT22;62667;48.698;8.762;2023-02-12T10:21:02;7.00;70.90
10868;DHT22;62667;48.698;8.762;2023-02-12T10:24:00;7.20;70.00
10868;DHT22;62667;48.698;8.762;2023-02-12T10:29:15;7.10;68.80
10868;DHT22;62667;48.698;8.762;2023-02-12T10:31:48;7.20;69.80
10868;DHT22;62667;48.698;8.762;2023-02-12T10:34:20;7.20;69.60
10868;DHT22;62667;48.698;8.762;2023-02-12T10:39:26;7.30;73.50
10868;DHT22;62667;48.698;8.762;2023-02-12T10:41:59;7.30;68.10
10868;DHT22;62667;48.698;8.762;2023-02-12T10:44:30;7.30;67.70
10868;DHT22;62667;48.698;8.762;2023-02-12T10:46:57;7.30;68.30
10868;DHT22;62667;48.698;8.762;2023-02-12T10:49:24;7.20;74.70
10868;DHT22;62667;48.698;8.762;2023-02-12T10:52:04;7.20;67.80
10868;DHT22;62667;48.698;8.762;2023-02-12T10:54:40;7.40;69.00
10868;DHT22;62667;48.698;8.762;2023-02-12T10:57:16;7.40;71.20
10868;DHT22;62667;48.698;8.762;2023-02-12T10:59:46;7.50;71.30
10868;DHT22;62667;48.698;8.762;2023-02-12T11:02:22;7.80;74.80
10868;DHT22;62667;48.698;8.762;2023-02-12T11:04:57;8.10;64.10
10868;DHT22;62667;48.698;8.762;2023-02-12T11:10:19;8.60;61.90
10868;DHT22;62667;48.698;8.762;2023-02-12T11:12:47;8.60;61.60
10868;DHT22;62667;48.698;8.762;2023-02-12T11:15:16;8.60;60.90
10868;DHT22;62667;48.698;8.762;2023-02-12T11:17:55;8.60;60.70
10868;DHT22;62667;48.698;8.762;2023-02-12T11:20:27;8.50;60.40
10868;DHT22;62667;48.698;8.762;2023-02-12T11:22:58;8.60;61.20
10868;DHT22;62667;48.698;8.762;2023-02-12T11:25:29;9.00;59.10
10868;DHT22;62667;48.698;8.762;2023-02-12T11:28:13;9.00;58.90
10868;DHT22;62667;48.698;8.762;2023-02-12T11:30:52;9.40;57.40
10868;DHT22;62667;48.698;8.762;2023-02-12T11:33:24;9.10;56.80
10868;DHT22;62667;48.698;8.762;2023-02-12T11:36:12;8.90;58.20
10868;DHT22;62667;48.698;8.762;2023-02-12T11:38:50;8.70;58.90
10868;DHT22;62667;48.698;8.762;2023-02-12T11:41:25;9.00;58.60
10868;DHT22;62667;48.698;8.762;2023-02-12T11:43:59;8.90;58.10
10868;DHT22;62667;48.698;8.762;2023-02-12T11:46:27;8.90;58.30
10868;DHT22;62667;48.698;8.762;2023-02-12T11:48:56;9.00;58.30
10868;DHT22;62667;48.698;8.762;2023-02-12T11:51:28;8.80;58.50
10868;DHT22;62667;48.698;8.762;2023-02-12T11:54:00;8.80;58.20
10868;DHT22;62667;48.698;8.762;2023-02-12T11:56:41;8.80;58.60
10868;DHT22;62667;48.698;8.762;2023-02-12T11:59:31;9.00;58.20
10868;DHT22;62667;48.698;8.762;2023-02-12T12:02:04;9.00;58.20
10868;DHT22;62667;48.698;8.762;2023-02-12T12:04:42;9.00;58.60
10868;DHT22;62667;48.698;8.762;2023-02-12T12:07:17;8.90;58.10
10868;DHT22;62667;48.698;8.762;2023-02-12T12:09:54;9.20;58.70
10868;DHT22;62667;48.698;8.762;2023-02-12T12:12:32;9.60;57.10
10868;DHT22;62667;48.698;8.762;2023-02-12T12:15:11;9.90;55.30
10868;DHT22;62667;48.698;8.762;2023-02-12T12:18:08;10.20;54.70
10868;DHT22;62667;48.698;8.762;2023-02-12T12:21:07;10.90;52.30
10868;DHT22;62667;48.698;8.762;2023-02-12T12:23:41;11.10;51.40
10868;DHT22;62667;48.698;8.762;2023-02-12T12:28:49;11.10;48.20
10868;DHT22;62667;48.698;8.762;2023-02-12T12:31:24;11.30;50.00
10868;DHT22;62667;48.698;8.762;2023-02-12T12:34:04;11.50;49.30
10868;DHT22;62667;48.698;8.762;2023-02-12T12:37:08;11.60;48.30
10868;DHT22;62667;48.698;8.762;2023-02-12T12:40:06;12.10;48.00
10868;DHT22;62667;48.698;8.762;2023-02-12T12:43:01;13.50;43.10
10868;DHT22;62667;48.698;8.762;2023-02-12T12:46:02;13.60;42.80
10868;DHT22;62667;48.698;8.762;2023-02-12T12:48:51;13.40;42.00
10868;DHT22;62667;48.698;8.762;2023-02-12T12:51:44;13.30;40.40
10868;DHT22;62667;48.698;8.762;2023-02-12T12:54:48;13.20;41.10
10868;DHT22;62667;48.698;8.762;2023-02-12T12:57:38;12.70;44.00
10868;DHT22;62667;48.698;8.762;2023-02-12T13:00:23;12.30;43.80
10868;DHT22;62667;48.698;8.762;2023-02-12T13:03:19;11.90;45.60
10868;DHT22;62667;48.698;8.762;2023-02-12T13:09:32;14.50;39.80
10868;DHT22;62667;48.698;8.762;2023-02-12T13:15:27;14.40;38.40
10868;DHT22;62667;48.698;8.762;2023-02-12T13:18:08;16.30;36.60
10868;DHT22;62667;48.698;8.762;2023-02-12T13:20:50;16.60;33.00
10868;DHT22;62667;48.698;8.762;2023-02-12T13:26:05;16.90;32.00
10868;DHT22;62667;48.698;8.762;2023-02-12T13:28:41;17.00;30.30
10868;DHT22;62667;48.698;8.762;2023-02-12T13:33:50;16.30;33.20
10868;DHT22;62667;48.698;8.762;2023-02-12T13:36:20;16.80;31.90
10868;DHT22;62667;48.698;8.762;2023-02-12T13:38:54;16.60;33.00
10868;DHT22;62667;48.698;8.762;2023-02-12T13:41:24;16.40;31.50
10868;DHT22;62667;48.698;8.762;2023-02-12T13:44:00;18.70;29.60
10868;DHT22;62667;48.698;8.762;2023-02-12T13:46:45;18.90;29.80
10868;DHT22;62667;48.698;8.762;2023-02-12T13:52:01;23.30;17.90
10868;DHT22;62667;48.698;8.762;2023-02-12T13:57:15;26.90;15.10
10868;DHT22;62667;48.698;8.762;2023-02-12T13:59:47;26.50;14.70
10868;DHT22;62667;48.698;8.762;2023-02-12T14:05:26;25.40;14.60
10868;DHT22;62667;48.698;8.762;2023-02-12T14:07:57;26.20;15.40
10868;DHT22;62667;48.698;8.762;2023-02-12T14:10:33;26.60;13.70
10868;DHT22;62667;48.698;8.762;2023-02-12T14:13:12;25.50;15.10
10868;DHT22;62667;48.698;8.762;2023-02-12T14:15:45;25.80;15.90
10868;DHT22;62667;48.698;8.762;2023-02-12T14:18:29;26.50;14.70
10868;DHT22;62667;48.698;8.762;2023-02-12T14:27:36;28.10;12.50
10868;DHT22;62667;48.698;8.762;2023-02-12T14:30:27;27.60;13.20
10868;DHT22;62667;48.698;8.762;2023-02-12T14:33:19;26.40;14.00
10868;DHT22;62667;48.698;8.762;2023-02-12T14:36:14;25.30;15.10
10868;DHT22;62667;48.698;8.762;2023-02-12T14:38:59;24.80;16.20
10868;DHT22;62667;48.698;8.762;2023-02-12T14:41:36;27.50;13.70
10868;DHT22;62667;48.698;8.762;2023-02-12T14:50:22;28.40;13.20
10868;DHT22;62667;48.698;8.762;2023-02-12T14:53:03;28.50;12.60
10868;DHT22;62667;48.698;8.762;2023-02-12T14:55:34;28.30;12.40
10868;DHT22;62667;48.698;8.762;2023-02-12T14:58:04;28.70;11.60
10868;DHT22;62667;48.698;8.762;2023-02-12T15:00:40;30.30;11.10
10868;DHT22;62667;48.698;8.762;2023-02-12T15:03:18;30.30;10.40
10868;DHT22;62667;48.698;8.762;2023-02-12T15:05:56;30.20;10.90
10868;DHT22;62667;48.698;8.762;2023-02-12T15:08:35;28.90;10.70
10868;DHT22;62667;48.698;8.762;2023-02-12T15:11:13;29.20;11.30
10868;DHT22;62667;48.698;8.762;2023-02-12T15:13:50;29.60;11.40
10868;DHT22;62667;48.698;8.762;2023-02-12T15:16:34;28.40;11.90
10868;DHT22;62667;48.698;8.762;2023-02-12T15:19:19;28.50;12.00
10868;DHT22;62667;48.698;8.762;2023-02-12T15:21:58;28.30;11.40
10868;DHT22;62667;48.698;8.762;2023-02-12T15:24:26;29.30;11.70
10868;DHT22;62667;48.698;8.762;2023-02-12T15:26:55;28.40;11.50
10868;DHT22;62667;48.698;8.762;2023-02-12T15:29:27;28.10;11.20
10868;DHT22;62667;48.698;8.762;2023-02-12T15:34:29;25.90;13.50
10868;DHT22;62667;48.698;8.762;2023-02-12T15:37:01;26.40;14.60
10868;DHT22;62667;48.698;8.762;2023-02-12T15:39:38;27.90;12.90
10868;DHT22;62667;48.698;8.762;2023-02-12T15:42:23;28.80;11.20
10868;DHT22;62667;48.698;8.762;2023-02-12T15:44:51;27.70;12.30
10868;DHT22;62667;48.698;8.762;2023-02-12T15:47:18;26.30;13.70
10868;DHT22;62667;48.698;8.762;2023-02-12T15:49:49;26.30;13.50
10868;DHT22;62667;48.698;8.762;2023-02-12T15:52:20;25.20;15.30
10868;DHT22;62667;48.698;8.762;2023-02-12T15:54:59;25.20;16.20
10868;DHT22;62667;48.698;8.762;2023-02-12T16:02:31;24.70;14.60
10868;DHT22;62667;48.698;8.762;2023-02-12T16:04:59;24.70;16.90
10868;DHT22;62667;48.698;8.762;2023-02-12T16:07:34;24.00;16.70
10868;DHT22;62667;48.698;8.762;2023-02-12T16:12:33;23.20;17.00
10868;DHT22;62667;48.698;8.762;2023-02-12T16:25:14;18.80;23.50
10868;DHT22;62667;48.698;8.762;2023-02-12T16:27:52;16.90;27.20
10868;DHT22;62667;48.698;8.762;2023-02-12T16:30:29;15.60;30.60
10868;DHT22;62667;48.698;8.762;2023-02-12T16:32:59;14.90;31.90
10868;DHT22;62667;48.698;8.762;2023-02-12T16:35:29;14.50;33.50
10868;DHT22;62667;48.698;8.762;2023-02-12T16:38:01;12.70;37.90
10868;DHT22;62667;48.698;8.762;2023-02-12T16:41:24;12.40;39.00
10868;DHT22;62667;48.698;8.762;2023-02-12T16:44:19;11.90;40.60
10868;DHT22;62667;48.698;8.762;2023-02-12T16:49:21;11.00;45.20
10868;DHT22;62667;48.698;8.762;2023-02-12T16:51:51;10.70;46.70
10868;DHT22;62667;48.698;8.762;2023-02-12T16:54:29;10.50;46.80
10868;DHT22;62667;48.698;8.762;2023-02-12T16:56:59;10.30;47.60
10868;DHT22;62667;48.698;8.762;2023-02-12T16:59:27;10.20;48.00
10868;DHT22;62667;48.698;8.762;2023-02-12T17:01:59;9.90;49.00
10868;DHT22;62667;48.698;8.762;2023-02-12T17:06:56;9.70;50.40
10868;DHT22;62667;48.698;8.762;2023-02-12T17:09:26;9.70;51.50
10868;DHT22;62667;48.698;8.762;2023-02-12T17:11:56;9.40;50.90
10868;DHT22;62667;48.698;8.762;2023-02-12T17:14:23;9.00;51.70
10868;DHT22;62667;48.698;8.762;2023-02-12T17:16:50;8.80;52.70
10868;DHT22;62667;48.698;8.762;2023-02-12T17:19:17;8.70;53.70
10868;DHT22;62667;48.698;8.762;2023-02-12T17:21:46;8.60;54.20
10868;DHT22;62667;48.698;8.762;2023-02-12T17:24:17;8.40;54.60
10868;DHT22;62667;48.698;8.762;2023-02-12T17:31:46;8.20;55.30
10868;DHT22;62667;48.698;8.762;2023-02-12T17:39:11;7.70;56.40
10868;DHT22;62667;48.698;8.762;2023-02-12T17:41:40;7.70;57.30
10868;DHT22;62667;48.698;8.762;2023-02-12T17:44:11;7.50;58.00
10868;DHT22;62667;48.698;8.762;2023-02-12T17:49:09;7.50;57.40
10868;DHT22;62667;48.698;8.762;2023-02-12T17:51:40;7.50;57.40
10868;DHT22;62667;48.698;8.762;2023-02-12T17:54:07;7.40;57.70
10868;DHT22;62667;48.698;8.762;2023-02-12T17:56:34;7.30;57.50
10868;DHT22;62667;48.698;8.762;2023-02-12T17:59:02;6.90;57.60
10868;DHT22;62667;48.698;8.762;2023-02-12T18:01:30;6.80;58.70
10868;DHT22;62667;48.698;8.762;2023-02-12T18:06:28;6.80;58.50
10868;DHT22;62667;48.698;8.762;2023-02-12T18:08:57;6.70;59.60
10868;DHT22;62667;48.698;8.762;2023-02-12T18:11:26;6.80;59.20
10868;DHT22;62667;48.698;8.762;2023-02-12T18:16:24;6.70;59.10